Time;durP1;ratioP1;P1;durP2;ratioP2;P2;SDS_P1;SDS_P2;PMS_P1;PMS_P2;Temp;Humidity;BMP_temperature;BMP_pressure;BME280_temperature;BME280_humidity;BME280_pressure;Samples;Min_cycle;Max_cycle;Signal;HPM_P1;HPM_P2
2022/09/03 00:00:04;;;;;;;5.68;2.97;;;;;;;14.40;80.51;100899.59;5221666;28;20033;-66
2022/09/03 00:02:42;;;;;;;5.65;3.30;;;;;;;14.40;76.86;100902.25;5215484;28;20037;-66
2022/09/03 00:05:33;;;;;;;6.47;2.97;;;;;;;14.34;78.44;100900.16;5224083;28;20028;-67
2022/09/03 00:08:30;;;;;;;6.85;2.95;;;;;;;14.30;77.17;100897.75;5221600;28;20138;-67
2022/09/03 00:11:17;;;;;;;5.35;2.95;;;;;;;14.36;79.45;100899.00;5225178;28;20033;-66
2022/09/03 00:14:14;;;;;;;6.60;3.00;;;;;;;14.26;78.58;100899.00;5227008;28;20037;-66
2022/09/03 00:16:51;;;;;;;4.60;2.92;;;;;;;14.26;80.73;100893.63;5232752;28;20062;-66
2022/09/03 00:19:33;;;;;;;5.45;2.83;;;;;;;14.16;78.95;100889.28;5220280;28;20136;-66
2022/09/03 00:22:12;;;;;;;3.92;2.25;;;;;;;14.16;75.93;100895.47;5223903;28;20037;-66
2022/09/03 00:24:45;;;;;;;4.13;2.80;;;;;;;14.13;77.36;100893.06;5222141;28;20036;-66
2022/09/03 00:27:21;;;;;;;6.75;2.75;;;;;;;14.09;78.86;100897.88;5217469;28;20030;-66
2022/09/03 00:30:03;;;;;;;5.95;3.08;;;;;;;14.09;76.40;100892.53;5222439;28;20044;-66
2022/09/03 00:32:38;;;;;;;5.15;2.50;;;;;;;14.03;76.61;100898.41;5232250;28;20036;-66
2022/09/03 00:35:15;;;;;;;7.60;2.72;;;;;;;14.04;76.30;100899.28;5228183;28;20274;-67
2022/09/03 00:37:47;;;;;;;5.50;2.65;;;;;;;13.99;80.28;100897.00;5233710;28;20034;-66
2022/09/03 00:40:38;;;;;;;5.60;2.60;;;;;;;13.97;76.76;100903.50;5230040;28;20037;-66
2022/09/03 00:43:21;;;;;;;6.22;3.13;;;;;;;13.96;79.83;100894.63;5229434;28;20533;-66
2022/09/03 00:46:30;;;;;;;5.72;3.10;;;;;;;13.97;80.31;100892.78;5227918;28;20064;-66
2022/09/03 00:49:24;;;;;;;5.00;2.80;;;;;;;13.97;81.69;100890.94;5228407;28;20175;-66
2022/09/03 00:52:10;;;;;;;7.00;2.92;;;;;;;13.87;78.81;100890.06;5232436;28;20099;-66
2022/09/03 00:54:51;;;;;;;4.68;2.60;;;;;;;13.84;80.71;100899.22;5231542;28;20036;-66
2022/09/03 00:57:33;;;;;;;4.82;2.80;;;;;;;13.83;81.07;100889.50;5227538;28;20032;-66
2022/09/03 01:00:07;;;;;;;5.45;2.80;;;;;;;13.74;80.96;100893.00;5226405;28;20121;-66
2022/09/03 01:03:18;;;;;;;5.57;3.20;;;;;;;13.77;80.39;100892.72;5213099;28;20041;-67
2022/09/03 01:05:58;;;;;;;6.28;2.70;;;;;;;13.65;79.39;100886.63;5221647;28;20090;-66
2022/09/03 01:08:55;;;;;;;5.38;2.95;;;;;;;13.72;78.53;100886.91;5226399;28;20391;-66
2022/09/03 01:12:04;;;;;;;5.80;3.05;;;;;;;13.75;81.44;100885.78;5218403;28;20033;-66
2022/09/03 01:15:19;;;;;;;6.38;3.08;;;;;;;13.65;79.79;100883.94;5220814;28;20028;-66
2022/09/03 01:17:50;;;;;;;5.65;3.05;;;;;;;13.60;81.43;100882.66;5225922;28;20587;-66
2022/09/03 01:20:37;;;;;;;4.70;2.65;;;;;;;13.58;82.12;100872.06;5210951;28;20037;-66
2022/09/03 01:23:08;;;;;;;5.70;3.28;;;;;;;13.55;81.85;100876.84;5217385;28;20116;-66
2022/09/03 01:26:01;;;;;;;5.15;3.45;;;;;;;13.56;80.98;100882.09;5229831;28;20021;-66
2022/09/03 01:28:55;;;;;;;6.13;3.10;;;;;;;13.46;78.80;100878.50;5220306;28;20033;-66
2022/09/03 01:31:35;;;;;;;9.82;3.35;;;;;;;13.45;80.78;100887.53;5220193;28;20029;-66
2022/09/03 01:34:24;;;;;;;7.63;3.47;;;;;;;13.45;80.05;100891.06;5222011;28;20039;-67
2022/09/03 01:37:30;;;;;;;6.43;3.28;;;;;;;13.45;81.61;100882.19;5231170;28;20059;-66
2022/09/03 01:40:26;;;;;;;6.75;3.50;;;;;;;13.43;82.54;100884.16;5216331;28;20495;-66
2022/09/03 01:43:17;;;;;;;6.85;3.70;;;;;;;13.38;83.23;100883.69;5228775;28;20049;-67
2022/09/03 01:45:59;;;;;;;6.68;3.30;;;;;;;13.26;79.24;100880.22;5220629;28;20033;-66
2022/09/03 01:48:51;;;;;;;5.20;3.63;;;;;;;13.36;81.61;100878.47;5227783;28;20590;-67
2022/09/03 01:51:26;;;;;;;5.82;3.80;;;;;;;13.33;82.05;100886.78;5228065;28;20037;-67
2022/09/03 01:54:26;;;;;;;10.90;4.85;;;;;;;13.30;80.82;100879.00;5231718;28;20033;-66
2022/09/03 01:57:16;;;;;;;5.82;3.47;;;;;;;13.35;85.15;100879.47;5229236;28;20032;-66
2022/09/03 02:00:02;;;;;;;6.82;3.47;;;;;;;13.27;83.14;100884.59;5227840;28;20068;-66
2022/09/03 02:02:34;;;;;;;8.18;3.50;;;;;;;13.25;82.43;100894.59;5224787;28;20077;-66
2022/09/03 02:05:11;;;;;;;9.50;4.00;;;;;;;13.20;82.55;100892.31;5222732;28;20021;-67
2022/09/03 02:07:56;;;;;;;6.65;3.80;;;;;;;13.28;83.27;100886.31;5220365;28;20371;-66
2022/09/03 02:10:33;;;;;;;6.35;3.85;;;;;;;13.20;83.41;100878.09;5220207;28;20368;-67
2022/09/03 02:13:08;;;;;;;7.55;3.90;;;;;;;13.15;83.35;100875.78;5228745;28;20013;-66
2022/09/03 02:15:44;;;;;;;8.38;3.90;;;;;;;13.12;80.91;100874.25;5225874;28;20033;-66
2022/09/03 02:18:19;;;;;;;7.15;4.03;;;;;;;13.10;83.24;100878.88;5218609;28;20029;-67
2022/09/03 02:20:54;;;;;;;6.75;3.90;;;;;;;13.12;82.81;100881.44;5230451;28;20029;-67
2022/09/03 02:23:26;;;;;;;9.10;4.90;;;;;;;13.09;83.09;100881.69;5223900;28;20265;-66
2022/09/03 02:26:01;;;;;;;6.32;4.18;;;;;;;13.05;83.64;100874.91;5231593;28;20490;-66
2022/09/03 02:28:33;;;;;;;8.98;5.05;;;;;;;13.02;83.43;100876.03;5228356;28;20163;-67
2022/09/03 02:31:04;;;;;;;8.82;4.25;;;;;;;13.03;82.34;100882.22;5221902;28;20022;-66
2022/09/03 02:33:38;;;;;;;6.68;4.57;;;;;;;12.96;82.53;100879.22;5219456;28;20040;-66
2022/09/03 02:36:11;;;;;;;;;;;;;;;13.09;80.99;100879.84;5225442;28;20025;-67
2022/09/03 02:38:44;;;;;;;7.70;4.50;;;;;;;12.95;82.42;100877.53;5224397;28;19916;-66
2022/09/03 02:41:16;;;;;;;6.32;4.15;;;;;;;12.92;82.19;100883.13;5216880;28;20052;-66
2022/09/03 02:43:50;;;;;;;9.20;4.65;;;;;;;12.91;80.74;100886.81;5228032;28;20065;-67
2022/09/03 02:46:25;;;;;;;;;;;;;;;13.05;80.55;100881.09;5213965;28;20033;-66
2022/09/03 02:48:57;;;;;;;6.88;4.68;;;;;;;12.93;84.34;100864.28;5220657;28;19928;-66
2022/09/03 02:51:39;;;;;;;6.65;4.60;;;;;;;12.90;84.08;100869.03;5218856;28;20280;-66
2022/09/03 02:54:11;;;;;;;7.18;4.72;;;;;;;12.90;83.98;100874.38;5234123;28;20029;-66
2022/09/03 02:56:42;;;;;;;10.38;4.82;;;;;;;12.92;85.17;100880.47;5230979;28;20062;-66
2022/09/03 02:59:15;;;;;;;10.18;4.20;;;;;;;12.86;83.88;100873.81;5227094;28;20062;-66
2022/09/03 03:01:46;;;;;;;7.05;4.43;;;;;;;12.92;87.03;100873.31;5231445;28;20613;-66
2022/09/03 03:04:17;;;;;;;6.93;4.50;;;;;;;12.90;83.01;100869.03;5230810;28;20044;-66
2022/09/03 03:06:51;;;;;;;8.60;4.78;;;;;;;12.90;86.17;100875.22;5226936;28;20038;-66
2022/09/03 03:09:22;;;;;;;7.55;4.57;;;;;;;12.93;85.86;100877.66;5235481;28;20052;-66
2022/09/03 03:11:54;;;;;;;9.93;4.80;;;;;;;12.83;84.86;100890.16;5232196;28;20148;-66
2022/09/03 03:14:25;;;;;;;8.30;4.53;;;;;;;12.83;81.36;100886.59;5227589;28;20041;-66
2022/09/03 03:16:56;;;;;;;6.60;4.47;;;;;;;12.82;81.11;100879.56;5232492;28;20040;-67
2022/09/03 03:19:28;;;;;;;9.52;4.35;;;;;;;12.90;83.30;100872.56;5227461;28;20032;-66
2022/09/03 03:21:59;;;;;;;8.18;4.60;;;;;;;12.80;83.33;100884.19;5234261;28;20029;-66
2022/09/03 03:24:30;;;;;;;7.32;4.75;;;;;;;12.74;82.47;100877.53;5227955;28;20040;-67
2022/09/03 03:27:06;;;;;;;11.02;4.60;;;;;;;12.77;84.17;100871.06;5224300;28;20119;-66
2022/09/03 03:29:38;;;;;;;9.93;4.30;;;;;;;12.78;83.92;100867.44;5222404;28;20037;-66
2022/09/03 03:32:09;;;;;;;9.07;5.25;;;;;;;12.75;86.05;100876.53;5214377;28;20542;-66
2022/09/03 03:34:40;;;;;;;9.50;4.80;;;;;;;12.74;86.05;100874.88;5222801;28;20091;-67
2022/09/03 03:37:12;;;;;;;9.52;4.70;;;;;;;12.64;81.82;100872.13;5221422;28;20057;-67
2022/09/03 03:39:43;;;;;;;9.05;4.38;;;;;;;12.70;83.69;100879.63;5220578;28;20037;-66
2022/09/03 03:42:14;;;;;;;8.27;4.78;;;;;;;12.60;82.01;100880.53;5222849;28;20038;-66
2022/09/03 03:44:45;;;;;;;6.75;4.22;;;;;;;12.57;82.09;100880.81;5221561;28;20124;-66
2022/09/03 03:47:17;;;;;;;7.32;5.07;;;;;;;12.68;84.85;100878.06;5221505;28;20080;-66
2022/09/03 03:49:48;;;;;;;8.90;4.32;;;;;;;12.64;84.70;100873.97;5220502;28;20410;-66
2022/09/03 03:52:19;;;;;;;8.30;4.65;;;;;;;12.57;82.67;100876.28;5222486;28;20192;-66
2022/09/03 03:54:52;;;;;;;7.57;4.38;;;;;;;12.63;84.55;100880.28;5222336;28;20122;-66
2022/09/03 03:57:23;;;;;;;8.88;4.63;;;;;;;12.59;83.12;100881.53;5224708;28;20026;-66
2022/09/03 03:59:54;;;;;;;8.40;4.78;;;;;;;12.63;85.26;100885.63;5222523;28;20072;-66
2022/09/03 04:02:26;;;;;;;7.38;4.57;;;;;;;12.58;84.58;100874.47;5225643;28;20076;-66
2022/09/03 04:04:57;;;;;;;10.60;5.05;;;;;;;12.62;85.00;100879.44;5221735;28;20033;-66
2022/09/03 04:07:28;;;;;;;8.43;4.63;;;;;;;12.53;81.23;100877.53;5217086;28;20040;-66
2022/09/03 04:09:59;;;;;;;8.93;4.90;;;;;;;12.55;82.28;100875.56;5212877;28;20044;-66
2022/09/03 04:12:32;;;;;;;7.90;4.32;;;;;;;12.54;82.60;100873.84;5218085;28;20517;-66
2022/09/03 04:15:04;;;;;;;8.45;4.40;;;;;;;12.58;85.70;100883.34;5220839;28;20041;-66
2022/09/03 04:17:35;;;;;;;7.90;4.32;;;;;;;12.50;82.57;100873.31;5226851;28;20033;-66
2022/09/03 04:20:06;;;;;;;8.07;4.57;;;;;;;12.55;84.62;100872.91;5227810;28;20033;-66
2022/09/03 04:22:38;;;;;;;6.88;4.05;;;;;;;12.55;85.07;100864.88;5226294;28;20483;-66
2022/09/03 04:25:09;;;;;;;7.00;4.25;;;;;;;12.49;82.13;100868.91;5218662;28;21916;-66
2022/09/03 04:27:40;;;;;;;5.72;4.07;;;;;;;12.53;85.55;100865.00;5218204;28;20447;-66
2022/09/03 04:30:11;;;;;;;8.13;3.78;;;;;;;12.52;85.03;100870.47;5219112;28;20480;-66
2022/09/03 04:32:52;;;;;;;6.50;4.30;;;;;;;12.56;87.76;100869.25;5226428;28;20064;-66
2022/09/03 04:35:28;;;;;;;5.97;3.70;;;;;;;12.46;84.54;100868.31;5212182;28;20026;-66
2022/09/03 04:37:59;;;;;;;7.20;3.92;;;;;;;12.54;87.08;100861.34;5220498;28;20040;-66
2022/09/03 04:40:30;;;;;;;8.55;3.88;;;;;;;12.42;84.09;100866.88;5221910;28;20025;-66
2022/09/03 04:43:02;;;;;;;9.63;3.40;;;;;;;12.48;85.84;100869.03;5216764;28;20499;-66
2022/09/03 04:45:34;;;;;;;6.55;3.58;;;;;;;12.41;84.42;100863.38;5221120;28;20025;-66
2022/09/03 04:48:09;;;;;;;10.63;4.82;;;;;;;12.43;86.27;100871.25;5225402;28;20517;-66
2022/09/03 04:50:40;;;;;;;8.15;3.83;;;;;;;12.43;86.73;100873.94;5226958;28;20085;-66
2022/09/03 04:53:12;;;;;;;8.73;4.10;;;;;;;12.35;84.14;100872.75;5228404;28;20104;-66
2022/09/03 04:55:43;;;;;;;7.18;3.97;;;;;;;12.34;83.78;100873.72;5222696;28;20070;-66
2022/09/03 04:58:14;;;;;;;9.80;4.95;;;;;;;12.37;86.50;100869.94;5225839;28;20044;-66
2022/09/03 05:00:45;;;;;;;7.82;5.22;;;;;;;12.41;86.71;100873.22;5230711;28;20029;-66
2022/09/03 05:03:17;;;;;;;11.43;4.63;;;;;;;12.33;85.15;100874.72;5224523;28;20111;-66
2022/09/03 05:05:55;;;;;;;7.85;4.45;;;;;;;12.32;84.27;100872.16;5216442;28;20799;-66
2022/09/03 05:08:27;;;;;;;9.57;5.53;;;;;;;12.41;88.47;100874.06;5221326;28;20584;-66
2022/09/03 05:10:59;;;;;;;10.18;5.10;;;;;;;12.37;85.90;100869.94;5223458;28;20651;-66
2022/09/03 05:13:32;;;;;;;8.85;5.50;;;;;;;12.40;88.71;100867.00;5229057;28;20017;-66
2022/09/03 05:16:06;;;;;;;10.50;5.90;;;;;;;12.31;84.77;100871.31;5227091;28;20083;-66
2022/09/03 05:18:38;;;;;;;9.00;5.63;;;;;;;12.44;87.13;100873.78;5226836;28;20469;-66
2022/09/03 05:21:12;;;;;;;11.20;5.78;;;;;;;12.43;87.24;100869.44;5230267;28;20152;-66
2022/09/03 05:23:45;;;;;;;9.10;5.90;;;;;;;12.43;88.58;100873.94;5230603;28;20030;-66
2022/09/03 05:26:28;;;;;;;8.70;5.72;;;;;;;12.39;87.03;100864.44;5226054;28;20056;-66
2022/09/03 05:29:01;;;;;;;9.20;5.90;;;;;;;12.39;88.03;100876.03;5217220;28;20037;-65
2022/09/03 05:31:33;;;;;;;8.00;5.32;;;;;;;12.39;87.01;100867.13;5226168;28;20041;-65
2022/09/03 05:34:05;;;;;;;9.27;5.60;;;;;;;12.36;87.18;100868.25;5222687;28;20176;-65
2022/09/03 05:36:37;;;;;;;11.30;6.00;;;;;;;12.46;89.58;100868.31;5222239;28;20810;-65
2022/09/03 05:39:08;;;;;;;9.45;5.53;;;;;;;12.42;87.18;100872.22;5229604;28;20732;-65
2022/09/03 05:41:39;;;;;;;9.13;5.50;;;;;;;12.42;86.19;100869.56;5223762;28;20800;-65
2022/09/03 05:44:11;;;;;;;10.13;6.00;;;;;;;12.49;87.85;100871.59;5224395;28;20491;-66
2022/09/03 05:46:42;;;;;;;7.90;5.15;;;;;;;12.47;86.42;100870.88;5228097;28;20037;-65
2022/09/03 05:49:13;;;;;;;9.43;6.28;;;;;;;12.59;89.92;100871.66;5232503;28;20029;-65
2022/09/03 05:51:45;;;;;;;10.55;6.13;;;;;;;12.56;86.15;100871.94;5234719;28;20112;-65
2022/09/03 05:54:16;;;;;;;10.80;5.43;;;;;;;12.64;88.55;100876.63;5224686;28;20022;-66
2022/09/03 05:56:48;;;;;;;9.63;5.50;;;;;;;12.64;86.82;100879.31;5219611;28;20028;-66
2022/09/03 05:59:19;;;;;;;10.00;5.35;;;;;;;12.81;88.43;100870.69;5220261;28;20029;-66
2022/09/03 06:01:51;;;;;;;10.70;5.88;;;;;;;12.91;91.39;100876.09;5222860;28;20037;-66
2022/09/03 06:04:22;;;;;;;10.45;5.68;;;;;;;13.02;87.32;100868.00;5228630;28;20033;-66
2022/09/03 06:06:55;;;;;;;9.02;5.43;;;;;;;13.20;90.73;100870.91;5223510;28;20033;-66
2022/09/03 06:09:26;;;;;;;12.82;5.80;;;;;;;13.28;90.06;100865.69;5218543;28;20760;-65
2022/09/03 06:11:57;;;;;;;10.32;5.22;;;;;;;13.43;87.93;100870.75;5231175;28;20014;-65
2022/09/03 06:14:28;;;;;;;10.88;5.47;;;;;;;13.55;84.64;100874.16;5232860;28;20040;-66
2022/09/03 06:16:59;;;;;;;11.25;5.05;;;;;;;13.71;82.90;100875.34;5231720;28;20550;-66
2022/09/03 06:19:31;;;;;;;11.93;5.40;;;;;;;13.84;85.69;100871.56;5233549;28;20029;-66
2022/09/03 06:22:02;;;;;;;9.98;5.53;;;;;;;13.99;85.43;100878.22;5232933;28;20471;-66
2022/09/03 06:24:34;;;;;;;9.95;5.18;;;;;;;14.12;80.17;100877.97;5232516;28;20533;-66
2022/09/03 06:27:05;;;;;;;14.18;5.85;;;;;;;14.25;85.96;100878.53;5237704;28;20029;-66
2022/09/03 06:29:38;;;;;;;11.63;4.90;;;;;;;14.36;78.77;100877.53;5234995;28;20025;-66
2022/09/03 06:32:09;;;;;;;11.77;5.47;;;;;;;14.56;78.41;100882.94;5235923;28;20422;-66
2022/09/03 06:34:41;;;;;;;11.50;5.07;;;;;;;14.68;79.74;100873.75;5235782;28;20041;-66
2022/09/03 06:37:12;;;;;;;15.07;5.57;;;;;;;14.79;83.47;100873.59;5237386;28;20029;-66
2022/09/03 06:39:44;;;;;;;13.75;5.72;;;;;;;14.95;80.67;100878.34;5232663;28;20155;-66
2022/09/03 06:42:15;;;;;;;12.40;5.35;;;;;;;15.12;80.07;100881.28;5236131;28;20041;-66
2022/09/03 06:44:47;;;;;;;11.35;5.70;;;;;;;15.24;82.27;100886.31;5237037;28;20052;-66
2022/09/03 06:47:19;;;;;;;12.95;5.35;;;;;;;15.47;74.44;100883.28;5237185;28;20026;-65
2022/09/03 06:49:50;;;;;;;11.13;5.90;;;;;;;15.55;74.72;100874.47;5234917;28;20063;-65
2022/09/03 06:52:21;;;;;;;10.55;5.45;;;;;;;15.70;71.94;100883.72;5236951;28;20127;-65
2022/09/03 06:54:53;;;;;;;14.07;5.53;;;;;;;15.81;71.52;100880.88;5235073;28;20060;-65
2022/09/03 06:57:24;;;;;;;8.38;5.00;;;;;;;15.96;73.22;100881.19;5238118;28;20091;-66
2022/09/03 06:59:55;;;;;;;11.02;5.65;;;;;;;16.04;75.22;100883.13;5234412;28;20146;-65
2022/09/03 07:02:27;;;;;;;12.48;5.78;;;;;;;16.19;74.69;100888.84;5234951;28;20483;-66
2022/09/03 07:04:58;;;;;;;13.05;5.68;;;;;;;16.31;74.28;100881.38;5236625;28;20076;-66
2022/09/03 07:07:30;;;;;;;11.50;5.10;;;;;;;16.44;70.72;100882.69;5236616;28;20017;-66
2022/09/03 07:10:01;;;;;;;16.00;5.93;;;;;;;16.52;70.11;100884.59;5235638;28;20025;-66
2022/09/03 07:12:36;;;;;;;8.85;5.05;;;;;;;16.62;67.91;100895.28;5236585;28;20025;-65
2022/09/03 07:15:08;;;;;;;13.45;6.05;;;;;;;16.55;78.16;100888.81;5234369;28;20049;-66
2022/09/03 07:17:39;;;;;;;12.68;5.32;;;;;;;16.59;75.29;100890.22;5237225;28;20402;-66
2022/09/03 07:20:10;;;;;;;9.57;4.93;;;;;;;16.54;75.66;100887.97;5236135;28;20332;-66
2022/09/03 07:22:42;;;;;;;10.52;4.72;;;;;;;16.64;71.60;100887.88;5234349;28;20021;-66
2022/09/03 07:25:13;;;;;;;9.35;3.85;;;;;;;16.74;67.97;100891.34;5235447;28;20057;-66
2022/09/03 07:27:46;;;;;;;7.70;3.78;;;;;;;16.54;73.25;100887.13;5236806;28;20045;-66
2022/09/03 07:30:19;;;;;;;6.05;2.92;;;;;;;16.70;68.69;100891.81;5231845;28;20025;-66
2022/09/03 07:32:50;;;;;;;6.30;2.78;;;;;;;16.71;67.08;100888.13;5236318;28;20088;-66
2022/09/03 07:35:24;;;;;;;7.95;2.58;;;;;;;16.65;75.17;100885.03;5236647;28;20065;-66
2022/09/03 07:37:55;;;;;;;5.55;2.30;;;;;;;16.71;68.46;100893.50;5232156;28;20510;-66
2022/09/03 07:40:28;;;;;;;5.47;1.75;;;;;;;16.65;72.17;100890.44;5236561;28;20032;-66
2022/09/03 07:43:03;;;;;;;4.25;2.00;;;;;;;16.70;75.65;100892.66;5234586;28;20041;-66
2022/09/03 07:45:34;;;;;;;5.95;2.13;;;;;;;16.66;69.79;100886.75;5235397;28;20021;-66
2022/09/03 07:48:05;;;;;;;4.07;1.88;;;;;;;16.83;67.89;100893.13;5235633;28;20030;-65
2022/09/03 07:50:39;;;;;;;5.88;1.83;;;;;;;16.98;68.09;100892.56;5235360;28;20033;-66
2022/09/03 07:53:10;;;;;;;5.43;1.67;;;;;;;17.07;66.89;100897.00;5233260;28;20545;-65
2022/09/03 07:55:43;;;;;;;4.45;1.58;;;;;;;17.22;66.62;100899.94;5234514;28;20033;-66
2022/09/03 07:58:14;;;;;;;3.55;1.30;;;;;;;17.41;64.71;100893.47;5236908;28;20021;-66
2022/09/03 08:00:46;;;;;;;4.35;1.35;;;;;;;17.50;65.33;100897.06;5233279;28;20052;-66
2022/09/03 08:03:17;;;;;;;3.67;1.55;;;;;;;17.68;63.27;100903.22;5233549;28;20025;-66
2022/09/03 08:05:49;;;;;;;4.82;1.23;;;;;;;17.63;67.86;100894.75;5236165;28;20036;-66
2022/09/03 08:08:20;;;;;;;6.10;1.38;;;;;;;17.83;64.55;100896.19;5235388;28;20029;-66
2022/09/03 08:10:52;;;;;;;5.18;1.63;;;;;;;17.96;62.96;100894.91;5235237;28;20471;-65
2022/09/03 08:13:23;;;;;;;7.20;1.63;;;;;;;18.08;61.64;100895.44;5236133;28;20028;-66
2022/09/03 08:15:55;;;;;;;5.03;1.50;;;;;;;18.16;61.99;100895.44;5233477;28;20036;-66
2022/09/03 08:18:34;;;;;;;2.65;1.30;;;;;;;18.26;61.16;100898.03;5236231;28;20025;-66
2022/09/03 08:21:13;;;;;;;3.95;1.20;;;;;;;18.65;61.26;100900.91;5235314;28;20041;-66
2022/09/03 08:23:47;;;;;;;3.35;1.08;;;;;;;18.59;60.73;100902.44;5235374;28;20942;-67
2022/09/03 08:26:20;;;;;;;5.38;1.20;;;;;;;18.60;63.10;100905.97;5231734;28;20128;-66
2022/09/03 08:28:51;;;;;;;2.55;1.20;;;;;;;18.76;61.22;100913.25;5235320;28;20625;-66
2022/09/03 08:31:23;;;;;;;6.70;1.50;;;;;;;18.88;61.42;100909.22;5234876;28;20100;-66
2022/09/03 08:33:57;;;;;;;6.90;1.60;;;;;;;18.83;65.59;100910.72;5235564;28;20026;-66
2022/09/03 08:36:30;;;;;;;3.65;1.27;;;;;;;19.23;60.75;100904.41;5234231;28;20032;-66
2022/09/03 08:39:08;;;;;;;5.20;1.23;;;;;;;19.30;57.75;100910.81;5236305;28;20037;-65
2022/09/03 08:41:54;;;;;;;4.72;1.20;;;;;;;19.32;58.96;100916.91;5233232;28;20463;-66
2022/09/03 08:44:39;;;;;;;2.78;1.10;;;;;;;19.39;59.72;100907.09;5237121;28;20116;-66
2022/09/03 08:47:15;;;;;;;7.05;1.65;;;;;;;19.67;56.83;100919.34;5233591;28;20083;-66
2022/09/03 08:49:54;;;;;;;4.32;1.30;;;;;;;19.82;56.80;100920.31;5234249;28;20498;-66
2022/09/03 08:52:49;;;;;;;4.63;1.25;;;;;;;19.84;57.15;100912.03;5233500;28;20195;-65
2022/09/03 08:55:43;;;;;;;;;;;;;;;19.78;60.51;100911.69;5235470;28;20103;-66
2022/09/03 08:58:20;;;;;;;5.07;1.25;;;;;;;19.79;56.91;100912.56;5233321;28;19936;-66
2022/09/03 09:01:13;;;;;;;4.28;1.30;;;;;;;20.03;56.16;100911.59;5232872;28;20033;-65
2022/09/03 09:04:10;;;;;;;3.40;1.15;;;;;;;20.06;56.50;100908.53;5232253;28;20032;-66
2022/09/03 09:07:07;;;;;;;5.00;1.30;;;;;;;20.16;56.77;100911.84;5231610;28;20425;-66
2022/09/03 09:09:56;;;;;;;4.53;1.40;;;;;;;20.13;54.63;100916.78;5233208;28;20036;-65
2022/09/03 09:12:36;;;;;;;6.22;1.25;;;;;;;20.32;54.25;100916.31;5234330;28;20021;-66
2022/09/03 09:15:07;;;;;;;6.18;1.25;;;;;;;20.61;52.67;100911.22;5232946;28;20108;-66
2022/09/03 09:18:22;;;;;;;4.73;1.30;;;;;;;20.52;55.32;100921.28;5233626;28;20039;-65
2022/09/03 09:21:07;;;;;;;4.82;1.30;;;;;;;20.62;52.64;100918.34;5211855;28;20663;-65
2022/09/03 09:23:48;;;;;;;4.60;1.75;;;;;;;20.78;53.30;100920.91;5231046;28;20026;-65
2022/09/03 09:26:21;;;;;;;5.22;1.20;;;;;;;20.76;54.30;100918.38;5231897;28;20410;-65
2022/09/03 09:29:00;;;;;;;7.82;1.67;;;;;;;20.85;54.23;100915.59;5233921;28;20021;-65
2022/09/03 09:31:32;;;;;;;3.72;1.40;;;;;;;20.87;54.12;100914.41;5234584;28;20044;-65
2022/09/03 09:34:05;;;;;;;3.53;1.30;;;;;;;20.88;53.92;100909.81;5233528;28;20029;-66
2022/09/03 09:36:57;;;;;;;3.92;1.25;;;;;;;20.91;54.51;100914.88;5232084;28;20467;-66
2022/09/03 09:39:28;;;;;;;3.28;1.30;;;;;;;21.23;50.83;100911.00;5232147;28;20068;-66
2022/09/03 09:42:08;;;;;;;4.97;1.30;;;;;;;21.27;51.41;100906.03;5234046;28;20046;-66
2022/09/03 09:44:42;;;;;;;3.63;1.30;;;;;;;21.31;52.92;100910.91;5232992;28;20033;-66
2022/09/03 09:47:19;;;;;;;;;;;;;;;21.28;54.55;100916.69;5233564;28;20032;-66
2022/09/03 09:49:59;;;;;;;5.22;1.40;;;;;;;21.38;52.98;100921.84;5232325;28;20338;-65
2022/09/03 09:52:30;;;;;;;5.40;1.40;;;;;;;21.44;51.52;100913.00;5232556;28;20395;-66
2022/09/03 09:55:22;;;;;;;3.25;1.20;;;;;;;21.56;51.25;100918.81;5230063;28;20026;-66
2022/09/03 09:58:04;;;;;;;4.63;1.52;;;;;;;21.65;51.37;100911.38;5231635;28;20030;-65
2022/09/03 10:00:36;;;;;;;5.15;1.52;;;;;;;21.98;48.19;100913.69;5235477;28;20394;-65
2022/09/03 10:03:12;;;;;;;4.68;1.40;;;;;;;21.87;50.26;100915.03;5235689;28;20104;-66
2022/09/03 10:06:52;;;;;;;6.30;1.70;;;;;;;21.86;49.81;100906.03;5238721;28;20036;-66
2022/09/03 10:09:30;;;;;;;5.47;1.30;;;;;;;21.99;51.37;100915.38;5237119;28;20041;-67
2022/09/03 10:12:13;;;;;;;4.13;1.55;;;;;;;22.00;49.72;100911.63;5232516;28;20041;-67
2022/09/03 10:14:50;;;;;;;7.88;1.45;;;;;;;22.08;48.46;100906.91;5238318;28;20033;-66
2022/09/03 10:17:53;;;;;;;7.47;1.30;;;;;;;22.13;50.01;100903.63;5234501;28;20026;-66
2022/09/03 10:20:38;;;;;;;5.22;1.48;;;;;;;22.13;51.33;100909.06;5237362;28;20056;-65
2022/09/03 10:23:21;;;;;;;6.40;1.70;;;;;;;22.45;48.22;100901.47;5234368;28;20398;-66
2022/09/03 10:25:56;;;;;;;2.83;1.25;;;;;;;22.29;47.91;100900.69;5236217;28;20429;-66
2022/09/03 10:28:29;;;;;;;5.20;1.40;;;;;;;22.42;47.65;100901.88;5237644;28;20041;-66
2022/09/03 10:31:24;;;;;;;7.28;1.50;;;;;;;22.55;49.14;100901.13;5235472;28;20037;-66
2022/09/03 10:34:23;;;;;;;4.05;1.50;;;;;;;22.71;48.32;100895.44;5236648;28;20029;-66
2022/09/03 10:37:22;;;;;;;3.85;1.42;;;;;;;22.74;48.44;100900.47;5235927;28;20038;-66
2022/09/03 10:40:06;;;;;;;5.78;1.50;;;;;;;22.83;47.92;100898.47;5236100;28;20126;-65
2022/09/03 10:42:49;;;;;;;5.13;1.33;;;;;;;22.77;48.76;100904.69;5236705;28;20056;-66
2022/09/03 10:45:47;;;;;;;4.53;1.52;;;;;;;22.72;49.30;100899.81;5237235;28;20029;-66
2022/09/03 10:48:41;;;;;;;5.32;1.63;;;;;;;22.83;49.86;100902.00;5235114;28;20135;-66
2022/09/03 10:51:15;;;;;;;2.90;1.00;;;;;;;22.81;47.57;100901.38;5238340;28;20021;-66
2022/09/03 10:53:54;;;;;;;;;;;;;;;22.87;49.86;100897.84;5236375;28;20037;-67
2022/09/03 10:56:28;;;;;;;4.78;1.50;;;;;;;22.92;46.87;100894.56;5234853;28;20004;-66
2022/09/03 10:59:43;;;;;;;3.25;1.50;;;;;;;23.01;48.28;100904.25;5236956;28;20315;-66
2022/09/03 11:02:33;;;;;;;;;;;;;;;22.99;48.63;100892.75;5233816;28;20077;-66
2022/09/03 11:05:20;;;;;;;4.57;1.30;;;;;;;23.07;47.78;100894.50;5235712;28;19943;-66
2022/09/03 11:07:58;;;;;;;4.75;1.60;;;;;;;23.23;44.15;100896.91;5233870;28;20576;-66
2022/09/03 11:10:33;;;;;;;3.75;1.55;;;;;;;23.22;43.68;100895.22;5234723;28;20135;-67
2022/09/03 11:13:12;;;;;;;3.25;1.30;;;;;;;23.38;45.59;100885.06;5235967;28;20052;-66
2022/09/03 11:15:55;;;;;;;6.43;1.50;;;;;;;23.43;45.46;100893.44;5236662;28;20104;-66
2022/09/03 11:18:39;;;;;;;8.27;1.80;;;;;;;23.42;46.97;100889.06;5233144;28;20037;-66
2022/09/03 11:21:15;;;;;;;3.78;1.38;;;;;;;23.33;46.28;100893.81;5236718;28;20493;-66
2022/09/03 11:23:52;;;;;;;4.20;1.40;;;;;;;23.45;45.22;100892.22;5234877;28;20037;-66
2022/09/03 11:26:25;;;;;;;3.67;1.20;;;;;;;23.47;44.75;100887.41;5235087;28;20037;-66
2022/09/03 11:29:11;;;;;;;4.13;1.30;;;;;;;23.66;43.83;100884.97;5236787;28;20026;-66
2022/09/03 11:32:02;;;;;;;4.70;1.30;;;;;;;23.68;44.23;100883.75;5236231;28;20053;-66
2022/09/03 11:34:48;;;;;;;6.20;1.33;;;;;;;23.72;45.84;100883.31;5233845;28;20080;-66
2022/09/03 11:37:27;;;;;;;5.45;1.52;;;;;;;23.83;44.47;100882.78;5235435;28;20575;-66
2022/09/03 11:40:09;;;;;;;3.95;1.23;;;;;;;23.94;42.95;100876.72;5235806;28;20091;-66
2022/09/03 11:42:42;;;;;;;3.08;1.25;;;;;;;24.12;43.37;100872.59;5232930;28;20046;-66
2022/09/03 11:45:36;;;;;;;2.95;1.27;;;;;;;24.03;44.91;100875.50;5235932;28;20032;-66
2022/09/03 11:48:35;;;;;;;7.40;2.00;;;;;;;24.03;45.04;100872.78;5235470;28;20120;-66
2022/09/03 11:51:20;;;;;;;2.80;1.17;;;;;;;23.97;46.36;100867.28;5234979;28;20029;-66
2022/09/03 11:54:24;;;;;;;5.60;1.60;;;;;;;24.14;44.15;100874.03;5233542;28;20382;-66
2022/09/03 11:57:12;;;;;;;3.92;1.30;;;;;;;24.03;45.31;100872.78;5232955;28;20036;-66
2022/09/03 11:59:43;;;;;;;8.02;1.60;;;;;;;24.23;41.96;100870.09;5236882;28;20473;-66
2022/09/03 12:02:29;;;;;;;3.35;1.60;;;;;;;24.32;43.03;100869.91;5235048;28;20427;-66
2022/09/03 12:05:13;;;;;;;4.40;1.50;;;;;;;24.27;44.27;100875.97;5234109;28;20475;-66
2022/09/03 12:07:54;;;;;;;4.57;1.60;;;;;;;24.31;43.25;100879.97;5234403;28;20029;-66
2022/09/03 12:10:40;;;;;;;3.95;1.65;;;;;;;24.62;43.89;100887.59;5233796;28;20414;-66
2022/09/03 12:13:47;;;;;;;5.22;1.65;;;;;;;24.53;45.39;100872.47;5235206;28;20053;-67